Modeste, Louisiana
Current Conditions -  °F | °C
As of 8:35 PM on Saturday 22 Nov 2014 (Local Time) from KL38 Reporting Station
Overcast Overcast  
Wind Chill: 63°   Ceiling: 700
Heat Index: 63°   Visibility: 10mi
Dew Point: 63°   Wind: 7mph
Humidity: 100%   Direction: 100°E
Pressure: 29.93"   Gusts: NA
Location:  30.17°N, 91.01°W
Report Text: KL38 230235Z AUTO 10006KT 10SM OVC007 17/17 A2993 RMK AO2 T01720172
Loading
Personal Weather Stations






























Interactive Weather Map New forecast layout! Learn more

10-Day Weather Forecast

Advertisements
Track Severe Weather on mobile